sensor_id;sensor_type;location;lat;lon;timestamp;P1;durP1;ratioP1;P2;durP2;ratioP2
19107;SDS011;9686;48.832;9.126;2023-06-22T00:02:21;9.97;;;7.67;;
19107;SDS011;9686;48.832;9.126;2023-06-22T00:04:47;9.70;;;7.97;;
19107;SDS011;9686;48.832;9.126;2023-06-22T00:07:12;9.20;;;8.20;;
19107;SDS011;9686;48.832;9.126;2023-06-22T00:09:37;8.77;;;7.87;;
19107;SDS011;9686;48.832;9.126;2023-06-22T00:12:03;9.87;;;7.93;;
19107;SDS011;9686;48.832;9.126;2023-06-22T00:14:28;8.97;;;8.07;;
19107;SDS011;9686;48.832;9.126;2023-06-22T00:16:54;8.33;;;7.50;;
19107;SDS011;9686;48.832;9.126;2023-06-22T00:19:24;8.33;;;7.33;;
19107;SDS011;9686;48.832;9.126;2023-06-22T00:21:52;9.40;;;7.50;;
19107;SDS011;9686;48.832;9.126;2023-06-22T00:24:18;9.67;;;7.83;;
19107;SDS011;9686;48.832;9.126;2023-06-22T00:26:44;8.47;;;7.67;;
19107;SDS011;9686;48.832;9.126;2023-06-22T00:29:09;9.03;;;8.23;;
19107;SDS011;9686;48.832;9.126;2023-06-22T00:31:35;8.83;;;7.87;;
19107;SDS011;9686;48.832;9.126;2023-06-22T00:34:00;9.10;;;7.97;;
19107;SDS011;9686;48.832;9.126;2023-06-22T00:36:25;8.70;;;7.90;;
19107;SDS011;9686;48.832;9.126;2023-06-22T00:38:50;9.23;;;7.93;;
19107;SDS011;9686;48.832;9.126;2023-06-22T00:41:16;9.37;;;7.97;;
19107;SDS011;9686;48.832;9.126;2023-06-22T00:43:42;8.73;;;7.93;;
19107;SDS011;9686;48.832;9.126;2023-06-22T00:46:07;9.07;;;7.73;;
19107;SDS011;9686;48.832;9.126;2023-06-22T00:48:33;9.00;;;8.10;;
19107;SDS011;9686;48.832;9.126;2023-06-22T00:50:59;10.70;;;7.77;;
19107;SDS011;9686;48.832;9.126;2023-06-22T00:53:24;10.20;;;8.17;;
19107;SDS011;9686;48.832;9.126;2023-06-22T00:55:50;9.43;;;7.73;;
19107;SDS011;9686;48.832;9.126;2023-06-22T00:58:18;9.23;;;7.90;;
19107;SDS011;9686;48.832;9.126;2023-06-22T01:00:47;9.33;;;8.30;;
19107;SDS011;9686;48.832;9.126;2023-06-22T01:03:12;9.13;;;8.30;;
19107;SDS011;9686;48.832;9.126;2023-06-22T01:05:38;10.10;;;8.80;;
19107;SDS011;9686;48.832;9.126;2023-06-22T01:08:29;11.27;;;8.53;;
19107;SDS011;9686;48.832;9.126;2023-06-22T01:11:06;10.77;;;8.50;;
19107;SDS011;9686;48.832;9.126;2023-06-22T01:13:48;10.47;;;8.13;;
19107;SDS011;9686;48.832;9.126;2023-06-22T01:16:17;10.80;;;7.90;;
19107;SDS011;9686;48.832;9.126;2023-06-22T01:18:46;10.10;;;7.73;;
19107;SDS011;9686;48.832;9.126;2023-06-22T01:21:16;11.23;;;8.40;;
19107;SDS011;9686;48.832;9.126;2023-06-22T01:23:51;9.17;;;8.27;;
19107;SDS011;9686;48.832;9.126;2023-06-22T01:26:22;8.87;;;7.93;;
19107;SDS011;9686;48.832;9.126;2023-06-22T01:28:55;9.43;;;8.27;;
19107;SDS011;9686;48.832;9.126;2023-06-22T01:31:23;10.47;;;9.03;;
19107;SDS011;9686;48.832;9.126;2023-06-22T01:33:59;8.83;;;7.93;;
19107;SDS011;9686;48.832;9.126;2023-06-22T01:36:27;10.03;;;7.93;;
19107;SDS011;9686;48.832;9.126;2023-06-22T01:38:54;10.03;;;8.00;;
19107;SDS011;9686;48.832;9.126;2023-06-22T01:41:24;10.97;;;8.33;;
19107;SDS011;9686;48.832;9.126;2023-06-22T01:43:50;9.47;;;8.57;;
19107;SDS011;9686;48.832;9.126;2023-06-22T01:46:17;11.77;;;8.10;;
19107;SDS011;9686;48.832;9.126;2023-06-22T01:48:44;9.90;;;8.57;;
19107;SDS011;9686;48.832;9.126;2023-06-22T01:51:10;9.77;;;8.63;;
19107;SDS011;9686;48.832;9.126;2023-06-22T01:53:35;10.20;;;8.60;;
19107;SDS011;9686;48.832;9.126;2023-06-22T01:56:01;10.50;;;9.40;;
19107;SDS011;9686;48.832;9.126;2023-06-22T01:58:26;9.60;;;8.13;;
19107;SDS011;9686;48.832;9.126;2023-06-22T02:01:02;10.43;;;8.97;;
19107;SDS011;9686;48.832;9.126;2023-06-22T02:03:39;9.83;;;7.90;;
19107;SDS011;9686;48.832;9.126;2023-06-22T02:06:16;11.17;;;8.67;;
19107;SDS011;9686;48.832;9.126;2023-06-22T02:08:47;9.33;;;8.40;;
19107;SDS011;9686;48.832;9.126;2023-06-22T02:11:16;10.27;;;7.97;;
19107;SDS011;9686;48.832;9.126;2023-06-22T02:13:44;9.63;;;8.73;;
19107;SDS011;9686;48.832;9.126;2023-06-22T02:16:11;9.20;;;8.30;;
19107;SDS011;9686;48.832;9.126;2023-06-22T02:18:37;9.93;;;7.80;;
19107;SDS011;9686;48.832;9.126;2023-06-22T02:21:02;10.67;;;8.83;;
19107;SDS011;9686;48.832;9.126;2023-06-22T02:23:28;10.07;;;8.13;;
19107;SDS011;9686;48.832;9.126;2023-06-22T02:25:53;10.43;;;8.63;;
19107;SDS011;9686;48.832;9.126;2023-06-22T02:28:18;9.37;;;8.20;;
19107;SDS011;9686;48.832;9.126;2023-06-22T02:30:44;9.63;;;8.37;;
19107;SDS011;9686;48.832;9.126;2023-06-22T02:33:09;10.13;;;8.37;;
19107;SDS011;9686;48.832;9.126;2023-06-22T02:35:35;9.50;;;8.60;;
19107;SDS011;9686;48.832;9.126;2023-06-22T02:38:00;9.27;;;8.03;;
19107;SDS011;9686;48.832;9.126;2023-06-22T02:40:27;8.50;;;7.70;;
19107;SDS011;9686;48.832;9.126;2023-06-22T02:42:54;12.23;;;8.63;;
19107;SDS011;9686;48.832;9.126;2023-06-22T02:45:19;10.93;;;8.37;;
19107;SDS011;9686;48.832;9.126;2023-06-22T02:47:45;12.20;;;8.90;;
19107;SDS011;9686;48.832;9.126;2023-06-22T02:50:10;10.33;;;8.43;;
19107;SDS011;9686;48.832;9.126;2023-06-22T02:52:36;9.73;;;8.40;;
19107;SDS011;9686;48.832;9.126;2023-06-22T02:55:01;9.23;;;8.33;;
19107;SDS011;9686;48.832;9.126;2023-06-22T02:57:27;12.37;;;8.77;;
19107;SDS011;9686;48.832;9.126;2023-06-22T02:59:52;16.67;;;11.13;;
19107;SDS011;9686;48.832;9.126;2023-06-22T03:02:17;10.53;;;8.83;;
19107;SDS011;9686;48.832;9.126;2023-06-22T03:04:45;14.07;;;10.27;;
19107;SDS011;9686;48.832;9.126;2023-06-22T03:07:13;10.93;;;8.87;;
19107;SDS011;9686;48.832;9.126;2023-06-22T03:09:39;11.70;;;9.10;;
19107;SDS011;9686;48.832;9.126;2023-06-22T03:12:04;10.20;;;8.90;;
19107;SDS011;9686;48.832;9.126;2023-06-22T03:14:30;9.80;;;8.50;;
19107;SDS011;9686;48.832;9.126;2023-06-22T03:16:55;11.10;;;8.20;;
19107;SDS011;9686;48.832;9.126;2023-06-22T03:19:26;9.13;;;8.23;;
19107;SDS011;9686;48.832;9.126;2023-06-22T03:21:53;11.23;;;8.23;;
19107;SDS011;9686;48.832;9.126;2023-06-22T03:24:18;10.00;;;8.70;;
19107;SDS011;9686;48.832;9.126;2023-06-22T03:26:43;9.17;;;8.27;;
19107;SDS011;9686;48.832;9.126;2023-06-22T03:29:11;9.77;;;8.60;;
19107;SDS011;9686;48.832;9.126;2023-06-22T03:31:36;9.60;;;8.67;;
19107;SDS011;9686;48.832;9.126;2023-06-22T03:34:02;10.97;;;9.13;;
19107;SDS011;9686;48.832;9.126;2023-06-22T03:36:27;12.20;;;9.17;;
19107;SDS011;9686;48.832;9.126;2023-06-22T03:38:52;10.53;;;9.07;;
19107;SDS011;9686;48.832;9.126;2023-06-22T03:41:17;11.83;;;9.10;;
19107;SDS011;9686;48.832;9.126;2023-06-22T03:43:43;9.43;;;8.43;;
19107;SDS011;9686;48.832;9.126;2023-06-22T03:46:08;9.33;;;8.30;;
19107;SDS011;9686;48.832;9.126;2023-06-22T03:48:33;8.97;;;8.07;;
19107;SDS011;9686;48.832;9.126;2023-06-22T03:50:59;10.03;;;9.03;;
19107;SDS011;9686;48.832;9.126;2023-06-22T03:53:25;9.43;;;8.50;;
19107;SDS011;9686;48.832;9.126;2023-06-22T03:55:51;9.80;;;8.80;;
19107;SDS011;9686;48.832;9.126;2023-06-22T03:58:17;14.80;;;9.10;;
19107;SDS011;9686;48.832;9.126;2023-06-22T04:00:46;12.43;;;9.47;;
19107;SDS011;9686;48.832;9.126;2023-06-22T04:03:12;10.40;;;9.23;;
19107;SDS011;9686;48.832;9.126;2023-06-22T04:05:38;11.67;;;8.87;;
19107;SDS011;9686;48.832;9.126;2023-06-22T04:08:04;10.10;;;9.10;;
19107;SDS011;9686;48.832;9.126;2023-06-22T04:10:29;10.73;;;9.73;;
19107;SDS011;9686;48.832;9.126;2023-06-22T04:12:55;10.43;;;9.37;;
19107;SDS011;9686;48.832;9.126;2023-06-22T04:15:20;10.20;;;9.10;;
19107;SDS011;9686;48.832;9.126;2023-06-22T04:17:45;13.80;;;9.33;;
19107;SDS011;9686;48.832;9.126;2023-06-22T04:20:11;10.17;;;9.17;;
19107;SDS011;9686;48.832;9.126;2023-06-22T04:22:36;15.33;;;9.50;;
19107;SDS011;9686;48.832;9.126;2023-06-22T04:25:01;10.43;;;8.87;;
19107;SDS011;9686;48.832;9.126;2023-06-22T04:27:27;10.80;;;9.77;;
19107;SDS011;9686;48.832;9.126;2023-06-22T04:29:52;12.67;;;9.53;;
19107;SDS011;9686;48.832;9.126;2023-06-22T04:32:17;11.93;;;10.03;;
19107;SDS011;9686;48.832;9.126;2023-06-22T04:34:43;12.77;;;9.70;;
19107;SDS011;9686;48.832;9.126;2023-06-22T04:37:08;10.60;;;8.87;;
19107;SDS011;9686;48.832;9.126;2023-06-22T04:39:34;10.20;;;9.17;;
19107;SDS011;9686;48.832;9.126;2023-06-22T04:41:59;10.13;;;9.13;;
19107;SDS011;9686;48.832;9.126;2023-06-22T04:44:25;9.53;;;8.63;;
19107;SDS011;9686;48.832;9.126;2023-06-22T04:46:52;11.90;;;9.40;;
19107;SDS011;9686;48.832;9.126;2023-06-22T04:49:19;11.10;;;8.83;;
19107;SDS011;9686;48.832;9.126;2023-06-22T04:51:47;12.20;;;9.53;;
19107;SDS011;9686;48.832;9.126;2023-06-22T04:54:12;12.67;;;9.23;;
19107;SDS011;9686;48.832;9.126;2023-06-22T04:56:37;10.63;;;9.47;;
19107;SDS011;9686;48.832;9.126;2023-06-22T04:59:05;12.23;;;8.27;;
19107;SDS011;9686;48.832;9.126;2023-06-22T05:01:31;11.87;;;8.90;;
19107;SDS011;9686;48.832;9.126;2023-06-22T05:03:56;10.00;;;8.97;;
19107;SDS011;9686;48.832;9.126;2023-06-22T05:06:23;11.70;;;8.87;;
19107;SDS011;9686;48.832;9.126;2023-06-22T05:08:55;12.80;;;8.90;;
19107;SDS011;9686;48.832;9.126;2023-06-22T05:11:26;9.97;;;8.53;;
19107;SDS011;9686;48.832;9.126;2023-06-22T05:13:52;9.90;;;8.83;;
19107;SDS011;9686;48.832;9.126;2023-06-22T05:16:18;10.00;;;9.10;;
19107;SDS011;9686;48.832;9.126;2023-06-22T05:18:48;9.83;;;8.77;;
19107;SDS011;9686;48.832;9.126;2023-06-22T05:21:21;12.40;;;8.83;;
19107;SDS011;9686;48.832;9.126;2023-06-22T05:23:47;10.93;;;9.37;;
19107;SDS011;9686;48.832;9.126;2023-06-22T05:26:13;9.07;;;7.93;;
19107;SDS011;9686;48.832;9.126;2023-06-22T05:28:38;11.17;;;8.47;;
19107;SDS011;9686;48.832;9.126;2023-06-22T05:31:03;9.33;;;8.43;;
19107;SDS011;9686;48.832;9.126;2023-06-22T05:33:29;11.10;;;8.40;;
19107;SDS011;9686;48.832;9.126;2023-06-22T05:35:54;11.87;;;9.53;;
19107;SDS011;9686;48.832;9.126;2023-06-22T05:38:19;10.27;;;9.27;;
19107;SDS011;9686;48.832;9.126;2023-06-22T05:40:44;9.77;;;8.47;;
19107;SDS011;9686;48.832;9.126;2023-06-22T05:43:10;10.17;;;8.37;;
19107;SDS011;9686;48.832;9.126;2023-06-22T05:45:35;10.10;;;8.37;;
19107;SDS011;9686;48.832;9.126;2023-06-22T05:48:00;10.53;;;7.73;;
19107;SDS011;9686;48.832;9.126;2023-06-22T05:50:26;9.83;;;8.70;;
19107;SDS011;9686;48.832;9.126;2023-06-22T05:52:51;9.40;;;7.57;;
19107;SDS011;9686;48.832;9.126;2023-06-22T05:55:17;9.43;;;8.40;;
19107;SDS011;9686;48.832;9.126;2023-06-22T05:57:43;12.00;;;8.43;;
19107;SDS011;9686;48.832;9.126;2023-06-22T06:00:09;9.43;;;7.07;;
19107;SDS011;9686;48.832;9.126;2023-06-22T06:02:36;9.33;;;7.60;;
19107;SDS011;9686;48.832;9.126;2023-06-22T06:05:01;9.07;;;7.97;;
19107;SDS011;9686;48.832;9.126;2023-06-22T06:07:28;8.13;;;7.37;;
19107;SDS011;9686;48.832;9.126;2023-06-22T06:09:53;11.57;;;8.30;;
19107;SDS011;9686;48.832;9.126;2023-06-22T06:12:19;8.73;;;7.67;;
19107;SDS011;9686;48.832;9.126;2023-06-22T06:14:44;9.33;;;8.30;;
19107;SDS011;9686;48.832;9.126;2023-06-22T06:17:09;10.23;;;7.80;;
19107;SDS011;9686;48.832;9.126;2023-06-22T06:19:35;8.30;;;7.20;;
19107;SDS011;9686;48.832;9.126;2023-06-22T06:22:00;9.23;;;7.73;;
19107;SDS011;9686;48.832;9.126;2023-06-22T06:24:25;10.60;;;8.13;;
19107;SDS011;9686;48.832;9.126;2023-06-22T06:26:51;7.73;;;6.83;;
19107;SDS011;9686;48.832;9.126;2023-06-22T06:29:16;8.73;;;7.57;;
19107;SDS011;9686;48.832;9.126;2023-06-22T06:31:42;10.93;;;8.27;;
19107;SDS011;9686;48.832;9.126;2023-06-22T06:34:07;10.13;;;8.37;;
19107;SDS011;9686;48.832;9.126;2023-06-22T06:36:32;11.70;;;7.97;;
19107;SDS011;9686;48.832;9.126;2023-06-22T06:38:58;10.60;;;8.23;;
19107;SDS011;9686;48.832;9.126;2023-06-22T06:41:23;11.37;;;7.37;;
19107;SDS011;9686;48.832;9.126;2023-06-22T06:43:48;10.00;;;7.37;;
19107;SDS011;9686;48.832;9.126;2023-06-22T06:46:14;11.83;;;8.27;;
19107;SDS011;9686;48.832;9.126;2023-06-22T06:48:39;9.63;;;8.50;;
19107;SDS011;9686;48.832;9.126;2023-06-22T06:51:04;11.30;;;7.37;;
19107;SDS011;9686;48.832;9.126;2023-06-22T06:53:30;7.40;;;6.10;;
19107;SDS011;9686;48.832;9.126;2023-06-22T06:55:56;11.03;;;7.33;;
19107;SDS011;9686;48.832;9.126;2023-06-22T06:58:21;8.77;;;6.97;;
19107;SDS011;9686;48.832;9.126;2023-06-22T07:00:47;8.20;;;7.40;;
19107;SDS011;9686;48.832;9.126;2023-06-22T07:03:13;8.37;;;6.67;;
19107;SDS011;9686;48.832;9.126;2023-06-22T07:05:39;8.93;;;6.20;;
19107;SDS011;9686;48.832;9.126;2023-06-22T07:08:04;7.43;;;6.73;;
19107;SDS011;9686;48.832;9.126;2023-06-22T07:10:29;8.10;;;7.07;;
19107;SDS011;9686;48.832;9.126;2023-06-22T07:12:55;7.27;;;6.53;;
19107;SDS011;9686;48.832;9.126;2023-06-22T07:15:22;10.53;;;6.60;;
19107;SDS011;9686;48.832;9.126;2023-06-22T07:17:47;7.13;;;6.03;;
19107;SDS011;9686;48.832;9.126;2023-06-22T07:20:12;7.73;;;6.87;;
19107;SDS011;9686;48.832;9.126;2023-06-22T07:22:38;7.87;;;7.00;;
19107;SDS011;9686;48.832;9.126;2023-06-22T07:25:04;9.83;;;6.60;;
19107;SDS011;9686;48.832;9.126;2023-06-22T07:27:35;9.13;;;5.60;;
19107;SDS011;9686;48.832;9.126;2023-06-22T07:30:03;16.93;;;7.10;;
19107;SDS011;9686;48.832;9.126;2023-06-22T07:32:29;7.23;;;6.37;;
19107;SDS011;9686;48.832;9.126;2023-06-22T07:34:54;8.27;;;5.87;;
19107;SDS011;9686;48.832;9.126;2023-06-22T07:37:19;8.00;;;5.50;;
19107;SDS011;9686;48.832;9.126;2023-06-22T07:39:45;6.70;;;5.70;;
19107;SDS011;9686;48.832;9.126;2023-06-22T07:42:10;9.57;;;5.70;;
19107;SDS011;9686;48.832;9.126;2023-06-22T07:44:36;6.97;;;6.13;;
19107;SDS011;9686;48.832;9.126;2023-06-22T07:47:01;7.57;;;5.53;;
19107;SDS011;9686;48.832;9.126;2023-06-22T07:49:27;9.13;;;6.00;;
19107;SDS011;9686;48.832;9.126;2023-06-22T07:51:53;7.63;;;5.37;;
19107;SDS011;9686;48.832;9.126;2023-06-22T07:54:18;6.80;;;5.00;;
19107;SDS011;9686;48.832;9.126;2023-06-22T07:56:43;7.07;;;5.53;;
19107;SDS011;9686;48.832;9.126;2023-06-22T07:59:08;9.20;;;5.97;;
19107;SDS011;9686;48.832;9.126;2023-06-22T08:01:34;9.37;;;6.30;;
19107;SDS011;9686;48.832;9.126;2023-06-22T08:03:59;6.97;;;5.07;;
19107;SDS011;9686;48.832;9.126;2023-06-22T08:06:24;8.97;;;5.73;;
19107;SDS011;9686;48.832;9.126;2023-06-22T08:08:50;6.67;;;5.37;;
19107;SDS011;9686;48.832;9.126;2023-06-22T08:11:18;8.70;;;5.50;;
19107;SDS011;9686;48.832;9.126;2023-06-22T08:13:44;6.27;;;5.60;;
19107;SDS011;9686;48.832;9.126;2023-06-22T08:16:09;9.07;;;5.67;;
19107;SDS011;9686;48.832;9.126;2023-06-22T08:18:35;7.63;;;5.80;;
19107;SDS011;9686;48.832;9.126;2023-06-22T08:21:00;7.53;;;5.63;;
19107;SDS011;9686;48.832;9.126;2023-06-22T08:23:25;6.47;;;5.33;;
19107;SDS011;9686;48.832;9.126;2023-06-22T08:25:51;7.23;;;5.47;;
19107;SDS011;9686;48.832;9.126;2023-06-22T08:28:16;8.47;;;5.30;;
19107;SDS011;9686;48.832;9.126;2023-06-22T08:30:41;8.13;;;5.30;;
19107;SDS011;9686;48.832;9.126;2023-06-22T08:33:07;11.10;;;5.93;;
19107;SDS011;9686;48.832;9.126;2023-06-22T08:35:32;6.97;;;5.43;;
19107;SDS011;9686;48.832;9.126;2023-06-22T08:37:57;7.73;;;5.00;;
19107;SDS011;9686;48.832;9.126;2023-06-22T08:40:24;6.67;;;4.77;;
19107;SDS011;9686;48.832;9.126;2023-06-22T08:42:50;6.00;;;4.60;;
19107;SDS011;9686;48.832;9.126;2023-06-22T08:45:15;6.32;;;5.32;;
19107;SDS011;9686;48.832;9.126;2023-06-22T08:47:41;6.32;;;4.45;;
19107;SDS011;9686;48.832;9.126;2023-06-22T08:50:07;7.38;;;5.13;;
19107;SDS011;9686;48.832;9.126;2023-06-22T08:52:37;5.10;;;4.32;;
19107;SDS011;9686;48.832;9.126;2023-06-22T08:55:03;5.38;;;4.70;;
19107;SDS011;9686;48.832;9.126;2023-06-22T08:57:29;10.85;;;4.85;;
19107;SDS011;9686;48.832;9.126;2023-06-22T08:59:55;5.95;;;4.90;;
19107;SDS011;9686;48.832;9.126;2023-06-22T09:02:23;7.45;;;4.90;;
19107;SDS011;9686;48.832;9.126;2023-06-22T09:04:49;6.65;;;5.13;;
19107;SDS011;9686;48.832;9.126;2023-06-22T09:07:20;6.75;;;4.93;;
19107;SDS011;9686;48.832;9.126;2023-06-22T09:09:47;8.90;;;5.22;;
19107;SDS011;9686;48.832;9.126;2023-06-22T09:12:13;8.32;;;4.88;;
19107;SDS011;9686;48.832;9.126;2023-06-22T09:14:38;7.60;;;5.03;;
19107;SDS011;9686;48.832;9.126;2023-06-22T09:17:03;8.25;;;4.65;;
19107;SDS011;9686;48.832;9.126;2023-06-22T09:19:29;9.02;;;5.53;;
19107;SDS011;9686;48.832;9.126;2023-06-22T09:21:54;6.22;;;4.68;;
19107;SDS011;9686;48.832;9.126;2023-06-22T09:24:20;6.43;;;5.15;;
19107;SDS011;9686;48.832;9.126;2023-06-22T09:26:45;7.78;;;4.80;;
19107;SDS011;9686;48.832;9.126;2023-06-22T09:29:10;9.27;;;5.55;;
19107;SDS011;9686;48.832;9.126;2023-06-22T09:31:35;6.63;;;4.93;;
19107;SDS011;9686;48.832;9.126;2023-06-22T09:34:01;9.07;;;5.60;;
19107;SDS011;9686;48.832;9.126;2023-06-22T09:36:26;7.20;;;4.80;;
19107;SDS011;9686;48.832;9.126;2023-06-22T09:38:51;7.05;;;5.18;;
19107;SDS011;9686;48.832;9.126;2023-06-22T09:41:21;10.05;;;5.00;;
19107;SDS011;9686;48.832;9.126;2023-06-22T09:43:47;10.60;;;5.18;;
19107;SDS011;9686;48.832;9.126;2023-06-22T09:46:14;8.75;;;5.13;;
19107;SDS011;9686;48.832;9.126;2023-06-22T09:48:40;7.80;;;5.30;;
19107;SDS011;9686;48.832;9.126;2023-06-22T09:51:05;6.63;;;5.35;;
19107;SDS011;9686;48.832;9.126;2023-06-22T09:53:30;6.10;;;5.03;;
19107;SDS011;9686;48.832;9.126;2023-06-22T09:55:56;6.85;;;4.90;;
19107;SDS011;9686;48.832;9.126;2023-06-22T09:58:22;7.82;;;4.75;;
19107;SDS011;9686;48.832;9.126;2023-06-22T10:00:47;6.70;;;5.13;;
19107;SDS011;9686;48.832;9.126;2023-06-22T10:03:12;10.05;;;5.40;;
19107;SDS011;9686;48.832;9.126;2023-06-22T10:05:38;7.70;;;5.13;;
19107;SDS011;9686;48.832;9.126;2023-06-22T10:08:03;9.05;;;4.50;;
19107;SDS011;9686;48.832;9.126;2023-06-22T10:10:28;7.95;;;5.25;;
19107;SDS011;9686;48.832;9.126;2023-06-22T10:12:54;9.77;;;4.75;;
19107;SDS011;9686;48.832;9.126;2023-06-22T10:15:21;8.75;;;5.22;;
19107;SDS011;9686;48.832;9.126;2023-06-22T10:17:47;8.60;;;5.00;;
19107;SDS011;9686;48.832;9.126;2023-06-22T10:20:12;9.13;;;4.93;;
19107;SDS011;9686;48.832;9.126;2023-06-22T10:22:39;12.68;;;5.80;;
19107;SDS011;9686;48.832;9.126;2023-06-22T10:25:05;10.65;;;5.35;;
19107;SDS011;9686;48.832;9.126;2023-06-22T10:27:31;9.98;;;5.22;;
19107;SDS011;9686;48.832;9.126;2023-06-22T10:29:57;10.77;;;4.93;;
19107;SDS011;9686;48.832;9.126;2023-06-22T10:32:22;12.45;;;5.53;;
19107;SDS011;9686;48.832;9.126;2023-06-22T10:34:48;7.55;;;5.38;;
19107;SDS011;9686;48.832;9.126;2023-06-22T10:37:13;10.52;;;5.30;;
19107;SDS011;9686;48.832;9.126;2023-06-22T10:39:38;8.15;;;5.00;;
19107;SDS011;9686;48.832;9.126;2023-06-22T10:42:03;7.53;;;4.97;;
19107;SDS011;9686;48.832;9.126;2023-06-22T10:44:29;8.75;;;5.35;;
19107;SDS011;9686;48.832;9.126;2023-06-22T10:46:54;7.15;;;5.07;;
19107;SDS011;9686;48.832;9.126;2023-06-22T10:49:19;8.60;;;4.85;;
19107;SDS011;9686;48.832;9.126;2023-06-22T10:51:45;10.60;;;4.80;;
19107;SDS011;9686;48.832;9.126;2023-06-22T10:54:10;9.80;;;6.40;;
19107;SDS011;9686;48.832;9.126;2023-06-22T10:56:38;9.18;;;5.82;;
19107;SDS011;9686;48.832;9.126;2023-06-22T10:59:03;10.73;;;5.70;;
19107;SDS011;9686;48.832;9.126;2023-06-22T11:01:29;10.18;;;4.80;;
19107;SDS011;9686;48.832;9.126;2023-06-22T11:03:56;9.15;;;5.00;;
19107;SDS011;9686;48.832;9.126;2023-06-22T11:06:21;9.85;;;5.00;;
19107;SDS011;9686;48.832;9.126;2023-06-22T11:08:46;15.68;;;5.22;;
19107;SDS011;9686;48.832;9.126;2023-06-22T11:11:12;8.05;;;5.13;;
19107;SDS011;9686;48.832;9.126;2023-06-22T11:13:37;8.88;;;4.88;;
19107;SDS011;9686;48.832;9.126;2023-06-22T11:16:03;8.68;;;5.38;;
19107;SDS011;9686;48.832;9.126;2023-06-22T11:18:28;7.20;;;4.82;;
19107;SDS011;9686;48.832;9.126;2023-06-22T11:20:53;11.23;;;5.03;;
19107;SDS011;9686;48.832;9.126;2023-06-22T11:23:19;12.38;;;6.00;;
19107;SDS011;9686;48.832;9.126;2023-06-22T11:25:44;7.60;;;5.15;;
19107;SDS011;9686;48.832;9.126;2023-06-22T11:28:11;9.45;;;5.28;;
19107;SDS011;9686;48.832;9.126;2023-06-22T11:30:36;8.90;;;5.32;;
19107;SDS011;9686;48.832;9.126;2023-06-22T11:33:01;9.43;;;5.30;;
19107;SDS011;9686;48.832;9.126;2023-06-22T11:35:27;10.30;;;5.45;;
19107;SDS011;9686;48.832;9.126;2023-06-22T11:37:52;9.68;;;5.20;;
19107;SDS011;9686;48.832;9.126;2023-06-22T11:40:17;10.20;;;5.22;;
19107;SDS011;9686;48.832;9.126;2023-06-22T11:42:43;7.97;;;5.55;;
19107;SDS011;9686;48.832;9.126;2023-06-22T11:45:09;9.38;;;5.07;;
19107;SDS011;9686;48.832;9.126;2023-06-22T11:47:34;11.13;;;5.95;;
19107;SDS011;9686;48.832;9.126;2023-06-22T11:50:00;9.85;;;5.20;;
19107;SDS011;9686;48.832;9.126;2023-06-22T11:52:25;10.80;;;5.30;;
19107;SDS011;9686;48.832;9.126;2023-06-22T11:54:52;9.25;;;5.82;;
19107;SDS011;9686;48.832;9.126;2023-06-22T11:57:17;9.65;;;5.13;;
19107;SDS011;9686;48.832;9.126;2023-06-22T11:59:42;10.43;;;5.05;;
19107;SDS011;9686;48.832;9.126;2023-06-22T12:02:08;9.65;;;5.68;;
19107;SDS011;9686;48.832;9.126;2023-06-22T12:04:34;7.53;;;4.30;;
19107;SDS011;9686;48.832;9.126;2023-06-22T12:07:00;10.70;;;4.80;;
19107;SDS011;9686;48.832;9.126;2023-06-22T12:09:25;8.75;;;4.57;;
19107;SDS011;9686;48.832;9.126;2023-06-22T12:11:50;15.88;;;7.13;;
19107;SDS011;9686;48.832;9.126;2023-06-22T12:14:16;10.05;;;5.00;;
19107;SDS011;9686;48.832;9.126;2023-06-22T12:16:41;9.20;;;5.28;;
19107;SDS011;9686;48.832;9.126;2023-06-22T12:19:07;8.52;;;5.78;;
19107;SDS011;9686;48.832;9.126;2023-06-22T12:21:32;8.88;;;4.80;;
19107;SDS011;9686;48.832;9.126;2023-06-22T12:23:57;12.15;;;5.97;;
19107;SDS011;9686;48.832;9.126;2023-06-22T12:26:22;9.05;;;5.55;;
19107;SDS011;9686;48.832;9.126;2023-06-22T12:28:48;11.23;;;5.10;;
19107;SDS011;9686;48.832;9.126;2023-06-22T12:31:14;8.38;;;5.38;;
19107;SDS011;9686;48.832;9.126;2023-06-22T12:33:39;8.70;;;4.60;;
19107;SDS011;9686;48.832;9.126;2023-06-22T12:36:04;9.77;;;4.85;;
19107;SDS011;9686;48.832;9.126;2023-06-22T12:38:30;10.98;;;4.90;;
19107;SDS011;9686;48.832;9.126;2023-06-22T12:40:55;11.23;;;5.32;;
19107;SDS011;9686;48.832;9.126;2023-06-22T12:43:20;5.85;;;4.75;;
19107;SDS011;9686;48.832;9.126;2023-06-22T12:45:49;7.30;;;5.00;;
19107;SDS011;9686;48.832;9.126;2023-06-22T12:48:14;8.63;;;5.28;;
19107;SDS011;9686;48.832;9.126;2023-06-22T12:50:39;9.88;;;5.38;;
19107;SDS011;9686;48.832;9.126;2023-06-22T12:53:04;9.48;;;4.72;;
19107;SDS011;9686;48.832;9.126;2023-06-22T12:55:32;11.52;;;5.20;;
19107;SDS011;9686;48.832;9.126;2023-06-22T12:57:57;9.52;;;4.70;;
19107;SDS011;9686;48.832;9.126;2023-06-22T13:00:23;10.00;;;5.03;;
19107;SDS011;9686;48.832;9.126;2023-06-22T13:02:48;7.88;;;4.95;;
19107;SDS011;9686;48.832;9.126;2023-06-22T13:05:13;15.05;;;4.97;;
19107;SDS011;9686;48.832;9.126;2023-06-22T13:07:39;7.97;;;4.97;;
19107;SDS011;9686;48.832;9.126;2023-06-22T13:10:04;9.80;;;5.03;;
19107;SDS011;9686;48.832;9.126;2023-06-22T13:12:30;10.75;;;5.28;;
19107;SDS011;9686;48.832;9.126;2023-06-22T13:14:55;8.82;;;5.53;;
19107;SDS011;9686;48.832;9.126;2023-06-22T13:17:20;9.98;;;4.93;;
19107;SDS011;9686;48.832;9.126;2023-06-22T13:19:46;9.70;;;4.80;;
19107;SDS011;9686;48.832;9.126;2023-06-22T13:24:56;9.48;;;5.10;;
19107;SDS011;9686;48.832;9.126;2023-06-22T13:27:23;10.05;;;5.47;;
19107;SDS011;9686;48.832;9.126;2023-06-22T13:29:48;6.47;;;5.18;;
19107;SDS011;9686;48.832;9.126;2023-06-22T13:32:14;12.25;;;5.60;;
19107;SDS011;9686;48.832;9.126;2023-06-22T13:34:39;10.13;;;5.80;;
19107;SDS011;9686;48.832;9.126;2023-06-22T13:37:04;14.85;;;5.95;;
19107;SDS011;9686;48.832;9.126;2023-06-22T13:39:30;12.38;;;5.88;;
19107;SDS011;9686;48.832;9.126;2023-06-22T13:41:56;9.48;;;5.28;;
19107;SDS011;9686;48.832;9.126;2023-06-22T13:44:22;7.70;;;5.40;;
19107;SDS011;9686;48.832;9.126;2023-06-22T13:46:48;7.10;;;5.20;;
19107;SDS011;9686;48.832;9.126;2023-06-22T13:49:13;6.70;;;5.03;;
19107;SDS011;9686;48.832;9.126;2023-06-22T13:51:39;9.63;;;5.82;;
19107;SDS011;9686;48.832;9.126;2023-06-22T13:54:05;11.40;;;5.95;;
19107;SDS011;9686;48.832;9.126;2023-06-22T13:56:30;10.88;;;5.63;;
19107;SDS011;9686;48.832;9.126;2023-06-22T13:58:57;9.57;;;5.75;;
19107;SDS011;9686;48.832;9.126;2023-06-22T14:01:22;11.85;;;5.65;;
19107;SDS011;9686;48.832;9.126;2023-06-22T14:03:48;10.63;;;5.43;;
19107;SDS011;9686;48.832;9.126;2023-06-22T14:06:13;10.02;;;5.65;;
19107;SDS011;9686;48.832;9.126;2023-06-22T14:08:39;13.18;;;5.97;;
19107;SDS011;9686;48.832;9.126;2023-06-22T14:11:04;11.25;;;5.40;;
19107;SDS011;9686;48.832;9.126;2023-06-22T14:13:30;8.55;;;5.35;;
19107;SDS011;9686;48.832;9.126;2023-06-22T14:15:55;11.15;;;6.00;;
19107;SDS011;9686;48.832;9.126;2023-06-22T14:18:21;9.20;;;4.85;;
19107;SDS011;9686;48.832;9.126;2023-06-22T14:20:49;13.32;;;5.32;;
19107;SDS011;9686;48.832;9.126;2023-06-22T14:23:15;9.25;;;5.10;;
19107;SDS011;9686;48.832;9.126;2023-06-22T14:25:40;11.60;;;5.20;;
19107;SDS011;9686;48.832;9.126;2023-06-22T14:28:05;8.95;;;5.13;;
19107;SDS011;9686;48.832;9.126;2023-06-22T14:30:31;10.35;;;5.28;;
19107;SDS011;9686;48.832;9.126;2023-06-22T14:32:56;11.37;;;4.70;;
19107;SDS011;9686;48.832;9.126;2023-06-22T14:35:21;10.23;;;5.32;;
19107;SDS011;9686;48.832;9.126;2023-06-22T14:37:47;10.55;;;5.30;;
19107;SDS011;9686;48.832;9.126;2023-06-22T14:40:13;6.70;;;4.47;;
19107;SDS011;9686;48.832;9.126;2023-06-22T14:42:38;11.05;;;5.22;;
19107;SDS011;9686;48.832;9.126;2023-06-22T14:45:04;7.60;;;4.75;;
19107;SDS011;9686;48.832;9.126;2023-06-22T14:47:30;14.07;;;5.20;;
19107;SDS011;9686;48.832;9.126;2023-06-22T14:49:55;12.63;;;5.28;;
19107;SDS011;9686;48.832;9.126;2023-06-22T14:52:20;10.13;;;4.53;;